sensor_id;sensor_type;location;lat;lon;timestamp;temperature;humidity
3944;DHT22;1986;52.546;13.428;2024-01-30T00:00:34;4.40;1.00
3944;DHT22;1986;52.546;13.428;2024-01-30T00:03:11;4.40;1.00
3944;DHT22;1986;52.546;13.428;2024-01-30T00:05:49;4.30;1.00
3944;DHT22;1986;52.546;13.428;2024-01-30T00:08:16;4.30;1.00
3944;DHT22;1986;52.546;13.428;2024-01-30T00:10:55;4.30;1.00
3944;DHT22;1986;52.546;13.428;2024-01-30T00:13:23;4.30;1.00
3944;DHT22;1986;52.546;13.428;2024-01-30T00:15:54;4.20;1.00
3944;DHT22;1986;52.546;13.428;2024-01-30T00:18:22;4.20;1.00
3944;DHT22;1986;52.546;13.428;2024-01-30T00:20:49;4.20;1.00
3944;DHT22;1986;52.546;13.428;2024-01-30T00:23:24;4.20;1.00
3944;DHT22;1986;52.546;13.428;2024-01-30T00:25:59;4.10;1.00
3944;DHT22;1986;52.546;13.428;2024-01-30T00:28:26;4.10;1.00
3944;DHT22;1986;52.546;13.428;2024-01-30T00:31:00;4.10;1.00
3944;DHT22;1986;52.546;13.428;2024-01-30T00:33:28;4.10;1.00
3944;DHT22;1986;52.546;13.428;2024-01-30T00:35:59;4.10;1.00
3944;DHT22;1986;52.546;13.428;2024-01-30T00:38:29;4.10;1.00
3944;DHT22;1986;52.546;13.428;2024-01-30T00:41:06;4.10;1.00
3944;DHT22;1986;52.546;13.428;2024-01-30T00:43:41;4.10;1.00
3944;DHT22;1986;52.546;13.428;2024-01-30T00:46:09;4.00;1.00
3944;DHT22;1986;52.546;13.428;2024-01-30T00:48:36;4.10;1.00
3944;DHT22;1986;52.546;13.428;2024-01-30T00:51:20;4.00;1.00
3944;DHT22;1986;52.546;13.428;2024-01-30T00:54:01;4.00;1.00
3944;DHT22;1986;52.546;13.428;2024-01-30T00:56:31;4.00;1.00
3944;DHT22;1986;52.546;13.428;2024-01-30T00:58:59;4.00;1.00
3944;DHT22;1986;52.546;13.428;2024-01-30T01:01:31;4.00;1.00
3944;DHT22;1986;52.546;13.428;2024-01-30T01:04:04;3.90;1.00
3944;DHT22;1986;52.546;13.428;2024-01-30T01:06:35;3.90;1.00
3944;DHT22;1986;52.546;13.428;2024-01-30T01:09:10;3.90;1.00
3944;DHT22;1986;52.546;13.428;2024-01-30T01:11:58;3.90;1.00
3944;DHT22;1986;52.546;13.428;2024-01-30T01:14:25;3.90;1.00
3944;DHT22;1986;52.546;13.428;2024-01-30T01:16:52;3.90;1.00
3944;DHT22;1986;52.546;13.428;2024-01-30T01:19:26;3.80;1.00
3944;DHT22;1986;52.546;13.428;2024-01-30T01:21:54;3.80;1.00
3944;DHT22;1986;52.546;13.428;2024-01-30T01:24:21;3.80;1.00
3944;DHT22;1986;52.546;13.428;2024-01-30T01:26:50;3.80;1.00
3944;DHT22;1986;52.546;13.428;2024-01-30T01:29:21;3.70;1.00
3944;DHT22;1986;52.546;13.428;2024-01-30T01:31:54;3.70;1.00
3944;DHT22;1986;52.546;13.428;2024-01-30T01:34:22;3.70;1.00
3944;DHT22;1986;52.546;13.428;2024-01-30T01:36:50;3.70;1.00
3944;DHT22;1986;52.546;13.428;2024-01-30T01:39:21;3.60;1.00
3944;DHT22;1986;52.546;13.428;2024-01-30T01:41:49;3.60;1.00
3944;DHT22;1986;52.546;13.428;2024-01-30T01:44:17;3.60;1.00
3944;DHT22;1986;52.546;13.428;2024-01-30T01:46:47;3.50;1.00
3944;DHT22;1986;52.546;13.428;2024-01-30T01:49:17;3.50;1.00
3944;DHT22;1986;52.546;13.428;2024-01-30T01:51:45;3.50;1.00
3944;DHT22;1986;52.546;13.428;2024-01-30T01:54:14;3.50;1.00
3944;DHT22;1986;52.546;13.428;2024-01-30T01:56:45;3.50;1.00
3944;DHT22;1986;52.546;13.428;2024-01-30T01:59:13;3.50;1.00
3944;DHT22;1986;52.546;13.428;2024-01-30T02:01:41;3.40;1.00
3944;DHT22;1986;52.546;13.428;2024-01-30T02:04:10;3.40;1.00
3944;DHT22;1986;52.546;13.428;2024-01-30T02:06:37;3.40;1.00
3944;DHT22;1986;52.546;13.428;2024-01-30T02:09:05;3.40;1.00
3944;DHT22;1986;52.546;13.428;2024-01-30T02:11:32;3.40;1.00
3944;DHT22;1986;52.546;13.428;2024-01-30T02:14:02;3.30;1.00
3944;DHT22;1986;52.546;13.428;2024-01-30T02:16:30;3.30;1.00
3944;DHT22;1986;52.546;13.428;2024-01-30T02:18:57;3.20;1.00
3944;DHT22;1986;52.546;13.428;2024-01-30T02:21:26;3.20;1.00
3944;DHT22;1986;52.546;13.428;2024-01-30T02:23:55;3.30;1.00
3944;DHT22;1986;52.546;13.428;2024-01-30T02:26:25;3.20;1.00
3944;DHT22;1986;52.546;13.428;2024-01-30T02:28:54;3.20;1.00
3944;DHT22;1986;52.546;13.428;2024-01-30T02:31:21;3.20;1.00
3944;DHT22;1986;52.546;13.428;2024-01-30T02:33:48;3.20;1.00
3944;DHT22;1986;52.546;13.428;2024-01-30T02:36:18;3.20;2.70
3944;DHT22;1986;52.546;13.428;2024-01-30T02:38:51;3.10;4.20
3944;DHT22;1986;52.546;13.428;2024-01-30T02:41:19;3.10;5.20
3944;DHT22;1986;52.546;13.428;2024-01-30T02:43:46;3.10;6.20
3944;DHT22;1986;52.546;13.428;2024-01-30T02:46:14;3.10;7.20
3944;DHT22;1986;52.546;13.428;2024-01-30T02:48:41;3.10;8.30
3944;DHT22;1986;52.546;13.428;2024-01-30T02:51:09;3.10;9.60
3944;DHT22;1986;52.546;13.428;2024-01-30T02:53:37;3.10;11.30
3944;DHT22;1986;52.546;13.428;2024-01-30T02:56:06;3.10;12.80
3944;DHT22;1986;52.546;13.428;2024-01-30T02:58:35;3.20;14.20
3944;DHT22;1986;52.546;13.428;2024-01-30T03:01:02;3.20;14.90
3944;DHT22;1986;52.546;13.428;2024-01-30T03:03:31;3.20;14.50
3944;DHT22;1986;52.546;13.428;2024-01-30T03:05:59;3.10;14.30
3944;DHT22;1986;52.546;13.428;2024-01-30T03:08:27;3.20;14.90
3944;DHT22;1986;52.546;13.428;2024-01-30T03:10:57;3.10;15.40
3944;DHT22;1986;52.546;13.428;2024-01-30T03:13:40;3.20;17.00
3944;DHT22;1986;52.546;13.428;2024-01-30T03:16:08;3.20;18.70
3944;DHT22;1986;52.546;13.428;2024-01-30T03:18:35;3.20;19.60
3944;DHT22;1986;52.546;13.428;2024-01-30T03:21:04;3.20;20.10
3944;DHT22;1986;52.546;13.428;2024-01-30T03:23:33;3.20;20.10
3944;DHT22;1986;52.546;13.428;2024-01-30T03:26:01;3.20;21.00
3944;DHT22;1986;52.546;13.428;2024-01-30T03:28:32;3.10;21.10
3944;DHT22;1986;52.546;13.428;2024-01-30T03:31:02;3.00;22.60
3944;DHT22;1986;52.546;13.428;2024-01-30T03:33:29;2.90;25.80
3944;DHT22;1986;52.546;13.428;2024-01-30T03:35:57;2.90;29.70
3944;DHT22;1986;52.546;13.428;2024-01-30T03:38:26;2.80;33.10
3944;DHT22;1986;52.546;13.428;2024-01-30T03:40:53;2.90;37.30
3944;DHT22;1986;52.546;13.428;2024-01-30T03:43:23;2.90;39.40
3944;DHT22;1986;52.546;13.428;2024-01-30T03:45:51;2.90;41.70
3944;DHT22;1986;52.546;13.428;2024-01-30T03:48:21;2.80;43.80
3944;DHT22;1986;52.546;13.428;2024-01-30T03:50:51;2.90;46.30
3944;DHT22;1986;52.546;13.428;2024-01-30T03:53:18;2.90;47.10
3944;DHT22;1986;52.546;13.428;2024-01-30T03:55:45;2.80;48.90
3944;DHT22;1986;52.546;13.428;2024-01-30T03:58:13;2.70;50.50
3944;DHT22;1986;52.546;13.428;2024-01-30T04:00:41;2.70;53.30
3944;DHT22;1986;52.546;13.428;2024-01-30T04:03:08;2.70;56.30
3944;DHT22;1986;52.546;13.428;2024-01-30T04:05:45;2.70;60.00
3944;DHT22;1986;52.546;13.428;2024-01-30T04:08:13;2.70;63.70
3944;DHT22;1986;52.546;13.428;2024-01-30T04:10:42;2.70;66.80
3944;DHT22;1986;52.546;13.428;2024-01-30T04:13:10;2.70;67.90
3944;DHT22;1986;52.546;13.428;2024-01-30T04:15:38;2.70;69.30
3944;DHT22;1986;52.546;13.428;2024-01-30T04:18:08;2.70;70.80
3944;DHT22;1986;52.546;13.428;2024-01-30T04:20:35;2.70;73.20
3944;DHT22;1986;52.546;13.428;2024-01-30T04:23:04;2.80;75.10
3944;DHT22;1986;52.546;13.428;2024-01-30T04:25:31;2.80;76.30
3944;DHT22;1986;52.546;13.428;2024-01-30T04:27:58;2.80;77.00
3944;DHT22;1986;52.546;13.428;2024-01-30T04:30:26;2.80;77.80
3944;DHT22;1986;52.546;13.428;2024-01-30T04:32:53;2.90;78.40
3944;DHT22;1986;52.546;13.428;2024-01-30T04:35:20;2.90;78.10
3944;DHT22;1986;52.546;13.428;2024-01-30T04:37:52;3.00;78.40
3944;DHT22;1986;52.546;13.428;2024-01-30T04:40:21;2.90;77.10
3944;DHT22;1986;52.546;13.428;2024-01-30T04:42:48;2.90;76.80
3944;DHT22;1986;52.546;13.428;2024-01-30T04:45:15;2.90;76.90
3944;DHT22;1986;52.546;13.428;2024-01-30T04:47:42;2.90;78.20
3944;DHT22;1986;52.546;13.428;2024-01-30T04:50:10;2.90;80.00
3944;DHT22;1986;52.546;13.428;2024-01-30T04:52:37;2.90;80.80
3944;DHT22;1986;52.546;13.428;2024-01-30T04:55:07;2.90;80.40
3944;DHT22;1986;52.546;13.428;2024-01-30T04:57:38;2.90;81.00
3944;DHT22;1986;52.546;13.428;2024-01-30T05:00:06;2.90;80.80
3944;DHT22;1986;52.546;13.428;2024-01-30T05:02:34;2.90;80.60
3944;DHT22;1986;52.546;13.428;2024-01-30T05:05:02;3.00;79.50
3944;DHT22;1986;52.546;13.428;2024-01-30T05:07:29;3.00;77.80
3944;DHT22;1986;52.546;13.428;2024-01-30T05:09:59;3.00;75.80
3944;DHT22;1986;52.546;13.428;2024-01-30T05:12:26;3.00;74.10
3944;DHT22;1986;52.546;13.428;2024-01-30T05:14:55;3.00;72.60
3944;DHT22;1986;52.546;13.428;2024-01-30T05:17:22;3.10;71.10
3944;DHT22;1986;52.546;13.428;2024-01-30T05:19:50;3.10;68.90
3944;DHT22;1986;52.546;13.428;2024-01-30T05:22:18;3.10;67.80
3944;DHT22;1986;52.546;13.428;2024-01-30T05:24:47;3.10;66.60
3944;DHT22;1986;52.546;13.428;2024-01-30T05:27:14;3.10;65.30
3944;DHT22;1986;52.546;13.428;2024-01-30T05:29:41;3.10;64.20
3944;DHT22;1986;52.546;13.428;2024-01-30T05:32:09;3.10;63.90
3944;DHT22;1986;52.546;13.428;2024-01-30T05:34:37;3.10;63.00
3944;DHT22;1986;52.546;13.428;2024-01-30T05:37:04;3.10;62.60
3944;DHT22;1986;52.546;13.428;2024-01-30T05:39:32;3.10;61.30
3944;DHT22;1986;52.546;13.428;2024-01-30T05:41:59;3.10;59.80
3944;DHT22;1986;52.546;13.428;2024-01-30T05:44:29;3.10;58.60
3944;DHT22;1986;52.546;13.428;2024-01-30T05:46:58;3.10;57.60
3944;DHT22;1986;52.546;13.428;2024-01-30T05:49:26;3.10;57.70
3944;DHT22;1986;52.546;13.428;2024-01-30T05:51:53;3.00;58.10
3944;DHT22;1986;52.546;13.428;2024-01-30T05:54:20;3.00;59.60
3944;DHT22;1986;52.546;13.428;2024-01-30T05:56:48;3.00;62.10
3944;DHT22;1986;52.546;13.428;2024-01-30T05:59:16;3.00;64.30
3944;DHT22;1986;52.546;13.428;2024-01-30T06:01:46;3.00;66.10
3944;DHT22;1986;52.546;13.428;2024-01-30T06:04:14;3.10;67.10
3944;DHT22;1986;52.546;13.428;2024-01-30T06:06:56;3.10;66.50
3944;DHT22;1986;52.546;13.428;2024-01-30T06:09:35;3.10;64.90
3944;DHT22;1986;52.546;13.428;2024-01-30T06:12:05;3.10;64.60
3944;DHT22;1986;52.546;13.428;2024-01-30T06:14:37;3.00;64.00
3944;DHT22;1986;52.546;13.428;2024-01-30T06:17:11;3.00;64.50
3944;DHT22;1986;52.546;13.428;2024-01-30T06:19:52;3.00;65.60
3944;DHT22;1986;52.546;13.428;2024-01-30T06:22:25;3.00;66.70
3944;DHT22;1986;52.546;13.428;2024-01-30T06:24:57;3.10;66.90
3944;DHT22;1986;52.546;13.428;2024-01-30T06:27:33;3.10;66.80
3944;DHT22;1986;52.546;13.428;2024-01-30T06:30:12;3.10;68.10
3944;DHT22;1986;52.546;13.428;2024-01-30T06:32:53;3.10;69.10
3944;DHT22;1986;52.546;13.428;2024-01-30T06:35:23;3.10;70.30
3944;DHT22;1986;52.546;13.428;2024-01-30T06:37:53;3.10;70.00
3944;DHT22;1986;52.546;13.428;2024-01-30T06:40:29;3.10;69.40
3944;DHT22;1986;52.546;13.428;2024-01-30T06:42:57;3.10;68.50
3944;DHT22;1986;52.546;13.428;2024-01-30T06:45:40;3.10;68.50
3944;DHT22;1986;52.546;13.428;2024-01-30T06:48:21;3.10;67.00
3944;DHT22;1986;52.546;13.428;2024-01-30T06:51:02;3.10;66.80
3944;DHT22;1986;52.546;13.428;2024-01-30T06:53:38;3.10;66.50
3944;DHT22;1986;52.546;13.428;2024-01-30T06:56:26;3.10;66.40
3944;DHT22;1986;52.546;13.428;2024-01-30T06:58:53;3.10;66.50
3944;DHT22;1986;52.546;13.428;2024-01-30T07:01:27;3.10;67.50
3944;DHT22;1986;52.546;13.428;2024-01-30T07:04:15;3.10;67.30
3944;DHT22;1986;52.546;13.428;2024-01-30T07:06:57;3.10;66.40
3944;DHT22;1986;52.546;13.428;2024-01-30T07:09:45;3.10;66.80
3944;DHT22;1986;52.546;13.428;2024-01-30T07:12:20;3.10;66.90
3944;DHT22;1986;52.546;13.428;2024-01-30T07:14:47;3.10;66.90
3944;DHT22;1986;52.546;13.428;2024-01-30T07:17:14;3.10;68.00
3944;DHT22;1986;52.546;13.428;2024-01-30T07:19:43;3.10;68.90
3944;DHT22;1986;52.546;13.428;2024-01-30T07:22:10;3.10;69.00
3944;DHT22;1986;52.546;13.428;2024-01-30T07:24:46;3.10;68.40
3944;DHT22;1986;52.546;13.428;2024-01-30T07:27:16;3.20;67.80
3944;DHT22;1986;52.546;13.428;2024-01-30T07:29:44;3.20;65.30
3944;DHT22;1986;52.546;13.428;2024-01-30T07:32:11;3.20;62.60
3944;DHT22;1986;52.546;13.428;2024-01-30T07:34:39;3.20;60.30
3944;DHT22;1986;52.546;13.428;2024-01-30T07:37:06;3.20;59.60
3944;DHT22;1986;52.546;13.428;2024-01-30T07:39:34;3.20;59.20
3944;DHT22;1986;52.546;13.428;2024-01-30T07:42:03;3.20;58.70
3944;DHT22;1986;52.546;13.428;2024-01-30T07:44:30;3.20;58.90
3944;DHT22;1986;52.546;13.428;2024-01-30T07:46:57;3.30;58.70
3944;DHT22;1986;52.546;13.428;2024-01-30T07:49:28;3.30;57.50
3944;DHT22;1986;52.546;13.428;2024-01-30T07:51:55;3.30;56.80
3944;DHT22;1986;52.546;13.428;2024-01-30T07:54:22;3.30;54.70
3944;DHT22;1986;52.546;13.428;2024-01-30T07:57:17;3.40;52.70
3944;DHT22;1986;52.546;13.428;2024-01-30T07:59:58;3.40;48.80
3944;DHT22;1986;52.546;13.428;2024-01-30T08:02:44;3.50;46.70
3944;DHT22;1986;52.546;13.428;2024-01-30T08:05:21;3.50;42.80
3944;DHT22;1986;52.546;13.428;2024-01-30T08:07:49;3.50;40.50
3944;DHT22;1986;52.546;13.428;2024-01-30T08:10:25;3.40;38.80
3944;DHT22;1986;52.546;13.428;2024-01-30T08:12:54;3.40;39.50
3944;DHT22;1986;52.546;13.428;2024-01-30T08:15:37;3.50;41.40
3944;DHT22;1986;52.546;13.428;2024-01-30T08:18:06;3.60;42.90
3944;DHT22;1986;52.546;13.428;2024-01-30T08:20:34;3.70;42.70
3944;DHT22;1986;52.546;13.428;2024-01-30T08:23:15;3.70;39.00
3944;DHT22;1986;52.546;13.428;2024-01-30T08:25:46;3.80;32.40
3944;DHT22;1986;52.546;13.428;2024-01-30T08:28:31;3.80;27.60
3944;DHT22;1986;52.546;13.428;2024-01-30T08:31:12;3.80;22.90
3944;DHT22;1986;52.546;13.428;2024-01-30T08:33:41;3.90;20.20
3944;DHT22;1986;52.546;13.428;2024-01-30T08:36:13;3.90;18.80
3944;DHT22;1986;52.546;13.428;2024-01-30T08:38:48;4.00;17.70
3944;DHT22;1986;52.546;13.428;2024-01-30T08:41:17;4.00;16.00
3944;DHT22;1986;52.546;13.428;2024-01-30T08:44:02;4.10;12.70
3944;DHT22;1986;52.546;13.428;2024-01-30T08:46:32;4.10;8.30
3944;DHT22;1986;52.546;13.428;2024-01-30T08:49:01;4.30;5.70
3944;DHT22;1986;52.546;13.428;2024-01-30T08:51:30;4.40;1.00
3944;DHT22;1986;52.546;13.428;2024-01-30T08:53:57;4.60;1.00
3944;DHT22;1986;52.546;13.428;2024-01-30T08:56:40;4.60;1.00
3944;DHT22;1986;52.546;13.428;2024-01-30T08:59:18;4.70;1.00
3944;DHT22;1986;52.546;13.428;2024-01-30T09:01:46;4.80;1.00
3944;DHT22;1986;52.546;13.428;2024-01-30T09:04:26;5.00;1.00
3944;DHT22;1986;52.546;13.428;2024-01-30T09:07:09;5.10;1.00
3944;DHT22;1986;52.546;13.428;2024-01-30T09:09:42;5.20;1.00
3944;DHT22;1986;52.546;13.428;2024-01-30T09:12:09;5.30;1.00
3944;DHT22;1986;52.546;13.428;2024-01-30T09:15:01;5.40;1.00
3944;DHT22;1986;52.546;13.428;2024-01-30T09:17:38;5.30;1.00
3944;DHT22;1986;52.546;13.428;2024-01-30T09:20:06;5.40;1.00
3944;DHT22;1986;52.546;13.428;2024-01-30T09:22:38;5.60;1.00
3944;DHT22;1986;52.546;13.428;2024-01-30T09:25:16;5.80;1.00
3944;DHT22;1986;52.546;13.428;2024-01-30T09:27:52;5.90;1.00
3944;DHT22;1986;52.546;13.428;2024-01-30T09:30:22;5.80;99.90
3944;DHT22;1986;52.546;13.428;2024-01-30T09:32:49;5.70;99.90
3944;DHT22;1986;52.546;13.428;2024-01-30T09:35:17;5.80;99.90
3944;DHT22;1986;52.546;13.428;2024-01-30T09:37:53;5.90;64.20
3944;DHT22;1986;52.546;13.428;2024-01-30T09:40:34;6.00;1.00
3944;DHT22;1986;52.546;13.428;2024-01-30T09:43:03;6.00;1.00
3944;DHT22;1986;52.546;13.428;2024-01-30T09:45:33;6.10;1.00
3944;DHT22;1986;52.546;13.428;2024-01-30T09:48:06;6.10;1.00
3944;DHT22;1986;52.546;13.428;2024-01-30T09:50:35;6.00;1.00
3944;DHT22;1986;52.546;13.428;2024-01-30T09:53:17;5.90;1.00
3944;DHT22;1986;52.546;13.428;2024-01-30T09:55:46;5.80;1.00
3944;DHT22;1986;52.546;13.428;2024-01-30T09:58:18;5.90;1.00
3944;DHT22;1986;52.546;13.428;2024-01-30T10:01:03;6.10;1.00
3944;DHT22;1986;52.546;13.428;2024-01-30T10:03:30;6.00;99.90
3944;DHT22;1986;52.546;13.428;2024-01-30T10:06:03;6.10;99.90
3944;DHT22;1986;52.546;13.428;2024-01-30T10:08:47;6.10;99.90
3944;DHT22;1986;52.546;13.428;2024-01-30T10:11:18;6.20;1.00
3944;DHT22;1986;52.546;13.428;2024-01-30T10:14:00;6.30;1.00
3944;DHT22;1986;52.546;13.428;2024-01-30T10:16:29;6.40;1.00
3944;DHT22;1986;52.546;13.428;2024-01-30T10:19:11;6.50;1.00
3944;DHT22;1986;52.546;13.428;2024-01-30T10:21:42;6.60;99.90
3944;DHT22;1986;52.546;13.428;2024-01-30T10:24:10;6.50;99.90
3944;DHT22;1986;52.546;13.428;2024-01-30T10:26:47;6.60;99.90
3944;DHT22;1986;52.546;13.428;2024-01-30T10:29:17;6.60;41.40
3944;DHT22;1986;52.546;13.428;2024-01-30T10:31:56;6.70;31.70
3944;DHT22;1986;52.546;13.428;2024-01-30T10:34:25;6.80;1.00
3944;DHT22;1986;52.546;13.428;2024-01-30T10:37:12;6.90;1.00
3944;DHT22;1986;52.546;13.428;2024-01-30T10:39:54;7.00;1.00
3944;DHT22;1986;52.546;13.428;2024-01-30T10:42:26;7.10;1.00
3944;DHT22;1986;52.546;13.428;2024-01-30T10:44:59;7.10;99.90
3944;DHT22;1986;52.546;13.428;2024-01-30T10:47:35;7.00;99.90
3944;DHT22;1986;52.546;13.428;2024-01-30T10:50:06;7.10;99.90
3944;DHT22;1986;52.546;13.428;2024-01-30T10:52:39;7.10;99.90
3944;DHT22;1986;52.546;13.428;2024-01-30T10:55:14;7.20;99.90
3944;DHT22;1986;52.546;13.428;2024-01-30T10:57:45;7.30;99.90
3944;DHT22;1986;52.546;13.428;2024-01-30T11:00:15;7.30;73.60
3944;DHT22;1986;52.546;13.428;2024-01-30T11:02:54;7.40;25.10
3944;DHT22;1986;52.546;13.428;2024-01-30T11:05:27;7.40;1.00
3944;DHT22;1986;52.546;13.428;2024-01-30T11:07:57;7.40;1.00
3944;DHT22;1986;52.546;13.428;2024-01-30T11:10:27;7.40;1.00
3944;DHT22;1986;52.546;13.428;2024-01-30T11:12:57;7.50;1.00
3944;DHT22;1986;52.546;13.428;2024-01-30T11:15:29;7.50;1.00
3944;DHT22;1986;52.546;13.428;2024-01-30T11:18:09;7.60;1.00
3944;DHT22;1986;52.546;13.428;2024-01-30T11:20:38;7.50;1.00
3944;DHT22;1986;52.546;13.428;2024-01-30T11:23:12;7.60;1.00
3944;DHT22;1986;52.546;13.428;2024-01-30T11:25:38;7.60;1.00
3944;DHT22;1986;52.546;13.428;2024-01-30T11:28:15;7.60;1.00
3944;DHT22;1986;52.546;13.428;2024-01-30T11:30:42;7.50;1.00
3944;DHT22;1986;52.546;13.428;2024-01-30T11:33:13;7.50;1.00
3944;DHT22;1986;52.546;13.428;2024-01-30T11:35:42;7.50;1.00
3944;DHT22;1986;52.546;13.428;2024-01-30T11:38:11;7.50;1.00
3944;DHT22;1986;52.546;13.428;2024-01-30T11:40:40;7.60;1.00
3944;DHT22;1986;52.546;13.428;2024-01-30T11:43:09;7.70;1.00
3944;DHT22;1986;52.546;13.428;2024-01-30T11:45:36;7.70;1.00
3944;DHT22;1986;52.546;13.428;2024-01-30T11:48:05;7.70;1.00
3944;DHT22;1986;52.546;13.428;2024-01-30T11:50:38;7.80;1.00
3944;DHT22;1986;52.546;13.428;2024-01-30T11:53:06;7.80;1.00
3944;DHT22;1986;52.546;13.428;2024-01-30T11:55:38;7.90;1.00
3944;DHT22;1986;52.546;13.428;2024-01-30T11:58:08;7.90;1.00
3944;DHT22;1986;52.546;13.428;2024-01-30T12:00:36;7.90;1.00
3944;DHT22;1986;52.546;13.428;2024-01-30T12:03:04;7.90;1.00
3944;DHT22;1986;52.546;13.428;2024-01-30T12:05:32;8.00;1.00
3944;DHT22;1986;52.546;13.428;2024-01-30T12:08:02;8.00;1.00
3944;DHT22;1986;52.546;13.428;2024-01-30T12:10:29;8.20;1.00
3944;DHT22;1986;52.546;13.428;2024-01-30T12:12:58;8.40;1.00
3944;DHT22;1986;52.546;13.428;2024-01-30T12:15:27;8.50;1.00
3944;DHT22;1986;52.546;13.428;2024-01-30T12:18:04;8.50;1.00
3944;DHT22;1986;52.546;13.428;2024-01-30T12:20:34;8.40;1.00
3944;DHT22;1986;52.546;13.428;2024-01-30T12:23:04;8.30;1.00
3944;DHT22;1986;52.546;13.428;2024-01-30T12:25:37;8.20;1.00
3944;DHT22;1986;52.546;13.428;2024-01-30T12:28:05;8.10;1.00
3944;DHT22;1986;52.546;13.428;2024-01-30T12:30:35;8.10;1.00
3944;DHT22;1986;52.546;13.428;2024-01-30T12:33:03;8.20;1.00
3944;DHT22;1986;52.546;13.428;2024-01-30T12:35:34;8.10;1.00
3944;DHT22;1986;52.546;13.428;2024-01-30T12:38:08;8.10;1.00
3944;DHT22;1986;52.546;13.428;2024-01-30T12:40:35;8.10;1.00
3944;DHT22;1986;52.546;13.428;2024-01-30T12:43:16;8.10;1.00
3944;DHT22;1986;52.546;13.428;2024-01-30T12:45:47;8.10;1.00
3944;DHT22;1986;52.546;13.428;2024-01-30T12:48:15;8.20;1.00
3944;DHT22;1986;52.546;13.428;2024-01-30T12:50:52;8.20;1.00
3944;DHT22;1986;52.546;13.428;2024-01-30T12:53:22;8.20;1.00
3944;DHT22;1986;52.546;13.428;2024-01-30T12:55:51;8.10;1.00
3944;DHT22;1986;52.546;13.428;2024-01-30T12:58:22;8.00;1.00
3944;DHT22;1986;52.546;13.428;2024-01-30T13:00:50;8.00;51.80
3944;DHT22;1986;52.546;13.428;2024-01-30T13:03:18;8.10;99.90
3944;DHT22;1986;52.546;13.428;2024-01-30T13:05:47;8.10;99.90
3944;DHT22;1986;52.546;13.428;2024-01-30T13:08:15;8.20;99.90
3944;DHT22;1986;52.546;13.428;2024-01-30T13:10:45;8.30;99.90
3944;DHT22;1986;52.546;13.428;2024-01-30T13:13:13;8.30;99.90
3944;DHT22;1986;52.546;13.428;2024-01-30T13:15:40;8.30;99.90
3944;DHT22;1986;52.546;13.428;2024-01-30T13:18:08;8.30;99.90
3944;DHT22;1986;52.546;13.428;2024-01-30T13:20:38;8.20;99.90
3944;DHT22;1986;52.546;13.428;2024-01-30T13:23:11;8.20;99.90
3944;DHT22;1986;52.546;13.428;2024-01-30T13:25:50;8.20;99.90
3944;DHT22;1986;52.546;13.428;2024-01-30T13:28:20;8.20;99.90
3944;DHT22;1986;52.546;13.428;2024-01-30T13:31:01;8.20;99.90
3944;DHT22;1986;52.546;13.428;2024-01-30T13:33:31;8.20;1.00
3944;DHT22;1986;52.546;13.428;2024-01-30T13:35:59;8.20;1.00
3944;DHT22;1986;52.546;13.428;2024-01-30T13:38:25;8.20;1.00
3944;DHT22;1986;52.546;13.428;2024-01-30T13:40:55;8.20;1.00
3944;DHT22;1986;52.546;13.428;2024-01-30T13:43:25;8.30;1.00
3944;DHT22;1986;52.546;13.428;2024-01-30T13:45:54;8.30;1.00
3944;DHT22;1986;52.546;13.428;2024-01-30T13:48:21;8.40;1.00
3944;DHT22;1986;52.546;13.428;2024-01-30T13:50:49;8.50;1.00
3944;DHT22;1986;52.546;13.428;2024-01-30T13:53:18;8.50;1.00
3944;DHT22;1986;52.546;13.428;2024-01-30T13:55:45;8.60;1.00
3944;DHT22;1986;52.546;13.428;2024-01-30T13:58:18;8.70;1.00
3944;DHT22;1986;52.546;13.428;2024-01-30T14:00:47;8.70;1.00
3944;DHT22;1986;52.546;13.428;2024-01-30T14:03:14;8.60;1.00
3944;DHT22;1986;52.546;13.428;2024-01-30T14:05:43;8.50;1.00
3944;DHT22;1986;52.546;13.428;2024-01-30T14:08:11;8.60;1.00
3944;DHT22;1986;52.546;13.428;2024-01-30T14:10:39;8.50;1.00
3944;DHT22;1986;52.546;13.428;2024-01-30T14:13:07;8.50;1.00
3944;DHT22;1986;52.546;13.428;2024-01-30T14:15:40;8.50;1.00
3944;DHT22;1986;52.546;13.428;2024-01-30T14:18:09;8.50;1.00
3944;DHT22;1986;52.546;13.428;2024-01-30T14:20:40;8.40;1.00
3944;DHT22;1986;52.546;13.428;2024-01-30T14:23:08;8.50;1.00
3944;DHT22;1986;52.546;13.428;2024-01-30T14:25:50;8.40;1.00
3944;DHT22;1986;52.546;13.428;2024-01-30T14:28:20;8.50;1.00
3944;DHT22;1986;52.546;13.428;2024-01-30T14:30:50;8.50;20.90
3944;DHT22;1986;52.546;13.428;2024-01-30T14:33:18;8.50;39.80
3944;DHT22;1986;52.546;13.428;2024-01-30T14:35:47;8.50;74.40
3944;DHT22;1986;52.546;13.428;2024-01-30T14:38:13;8.50;94.30
3944;DHT22;1986;52.546;13.428;2024-01-30T14:40:42;8.50;99.90
3944;DHT22;1986;52.546;13.428;2024-01-30T14:43:10;8.50;99.90
3944;DHT22;1986;52.546;13.428;2024-01-30T14:45:37;8.60;99.90
3944;DHT22;1986;52.546;13.428;2024-01-30T14:48:07;8.60;99.90
3944;DHT22;1986;52.546;13.428;2024-01-30T14:50:34;8.60;99.90
3944;DHT22;1986;52.546;13.428;2024-01-30T14:53:03;8.60;99.90
3944;DHT22;1986;52.546;13.428;2024-01-30T14:55:31;8.60;99.90
3944;DHT22;1986;52.546;13.428;2024-01-30T14:57:59;8.50;1.00
3944;DHT22;1986;52.546;13.428;2024-01-30T15:00:28;8.40;1.00
3944;DHT22;1986;52.546;13.428;2024-01-30T15:02:56;8.50;1.00
3944;DHT22;1986;52.546;13.428;2024-01-30T15:05:25;8.40;1.00
3944;DHT22;1986;52.546;13.428;2024-01-30T15:07:52;8.40;1.00
3944;DHT22;1986;52.546;13.428;2024-01-30T15:10:20;8.40;66.00
3944;DHT22;1986;52.546;13.428;2024-01-30T15:12:49;8.30;99.90
3944;DHT22;1986;52.546;13.428;2024-01-30T15:15:16;8.30;99.90
3944;DHT22;1986;52.546;13.428;2024-01-30T15:17:43;8.30;99.90
3944;DHT22;1986;52.546;13.428;2024-01-30T15:20:12;8.30;1.00
3944;DHT22;1986;52.546;13.428;2024-01-30T15:22:50;8.30;1.00
3944;DHT22;1986;52.546;13.428;2024-01-30T15:25:17;8.20;1.00
3944;DHT22;1986;52.546;13.428;2024-01-30T15:27:58;8.20;1.00
3944;DHT22;1986;52.546;13.428;2024-01-30T15:30:28;8.20;1.00
3944;DHT22;1986;52.546;13.428;2024-01-30T15:33:12;8.30;99.90
3944;DHT22;1986;52.546;13.428;2024-01-30T15:35:39;8.40;99.90
3944;DHT22;1986;52.546;13.428;2024-01-30T15:38:09;8.30;99.90
3944;DHT22;1986;52.546;13.428;2024-01-30T15:40:37;8.20;99.90
3944;DHT22;1986;52.546;13.428;2024-01-30T15:43:12;8.20;99.90
3944;DHT22;1986;52.546;13.428;2024-01-30T15:45:39;8.20;99.90
3944;DHT22;1986;52.546;13.428;2024-01-30T15:48:07;8.30;99.90
3944;DHT22;1986;52.546;13.428;2024-01-30T15:50:34;8.30;99.90
3944;DHT22;1986;52.546;13.428;2024-01-30T15:53:02;8.30;99.90
3944;DHT22;1986;52.546;13.428;2024-01-30T15:55:31;8.30;99.90
3944;DHT22;1986;52.546;13.428;2024-01-30T15:58:04;8.20;99.90
3944;DHT22;1986;52.546;13.428;2024-01-30T16:00:31;8.20;99.90
3944;DHT22;1986;52.546;13.428;2024-01-30T16:03:00;8.20;99.90
3944;DHT22;1986;52.546;13.428;2024-01-30T16:05:27;8.20;99.90
3944;DHT22;1986;52.546;13.428;2024-01-30T16:07:57;8.20;99.90
3944;DHT22;1986;52.546;13.428;2024-01-30T16:10:24;8.10;99.90
3944;DHT22;1986;52.546;13.428;2024-01-30T16:12:55;8.20;99.90
3944;DHT22;1986;52.546;13.428;2024-01-30T16:15:22;8.10;99.90
3944;DHT22;1986;52.546;13.428;2024-01-30T16:17:50;8.10;1.00
3944;DHT22;1986;52.546;13.428;2024-01-30T16:20:18;8.10;1.00
3944;DHT22;1986;52.546;13.428;2024-01-30T16:22:46;8.00;1.00
3944;DHT22;1986;52.546;13.428;2024-01-30T16:25:14;8.00;1.00
3944;DHT22;1986;52.546;13.428;2024-01-30T16:27:43;8.00;1.00
3944;DHT22;1986;52.546;13.428;2024-01-30T16:30:22;8.00;1.00
3944;DHT22;1986;52.546;13.428;2024-01-30T16:32:49;7.90;1.00